createdAt,value
2022-12-04T00:00:15.378Z,102201.63
2022-12-04T00:00:50.338Z,102206.06
2022-12-04T00:01:24.361Z,102200.25
2022-12-04T00:01:56.582Z,102199.66
2022-12-04T00:02:32.882Z,102204.81
2022-12-04T00:03:05.110Z,102201.47
2022-12-04T00:03:37.750Z,102205.09
2022-12-04T00:04:13.472Z,102196.31
2022-12-04T00:04:45.661Z,102205.94
2022-12-04T00:05:17.841Z,102204.13
2022-12-04T00:05:52.521Z,102203.13
2022-12-04T00:06:25.583Z,102196.19
2022-12-04T00:06:59.045Z,102203.28
2022-12-04T00:07:34.201Z,102198.00
2022-12-04T00:08:06.533Z,102205.94
2022-12-04T00:08:39.307Z,102203.28
2022-12-04T00:09:14.143Z,102201.47
2022-12-04T00:09:48.830Z,102204.13
2022-12-04T00:10:20.922Z,102204.25
2022-12-04T00:10:55.607Z,102198.00
2022-12-04T00:11:30.486Z,102204.13
2022-12-04T00:12:05.159Z,102200.50
2022-12-04T00:12:37.249Z,102205.53
2022-12-04T00:13:09.553Z,102203.84
2022-12-04T00:13:44.797Z,102202.03
2022-12-04T00:14:16.943Z,102203.72
2022-12-04T00:15:23.341Z,102204.41
2022-12-04T00:15:45.186Z,102206.34
2022-12-04T00:16:19.265Z,102202.59
2022-12-04T00:16:51.514Z,102210.25
2022-12-04T00:17:26.266Z,102202.19
2022-12-04T00:17:58.362Z,102204.69
2022-12-04T00:18:30.461Z,102209.84
2022-12-04T00:19:05.143Z,102205.25
2022-12-04T00:19:37.237Z,102202.47
2022-12-04T00:20:10.194Z,102201.50
2022-12-04T00:20:44.870Z,102204.28
2022-12-04T00:21:18.188Z,102200.09
2022-12-04T00:21:53.584Z,102202.88
2022-12-04T00:22:25.785Z,102199.41
2022-12-04T00:22:57.833Z,102203.72
2022-12-04T00:23:29.914Z,102200.09
2022-12-04T00:24:04.748Z,102200.09
2022-12-04T00:24:36.890Z,102208.88
2022-12-04T00:25:11.628Z,102201.06
2022-12-04T00:25:48.798Z,102205.66
2022-12-04T00:26:22.474Z,102196.91
2022-12-04T00:26:54.579Z,102195.09
2022-12-04T00:27:29.252Z,102201.34
2022-12-04T00:28:01.385Z,102204.13
2022-12-04T00:28:33.918Z,102203.88
2022-12-04T00:29:08.626Z,102207.19
2022-12-04T00:29:40.719Z,102207.19
2022-12-04T00:30:13.804Z,102206.50
2022-12-04T00:30:50.008Z,102203.88
2022-12-04T00:31:25.308Z,102210.97
2022-12-04T00:31:57.485Z,102205.78
2022-12-04T00:32:33.020Z,102200.63
2022-12-04T00:33:05.107Z,102210.25
2022-12-04T00:33:38.781Z,102206.06
2022-12-04T00:34:13.750Z,102206.91
2022-12-04T00:34:45.931Z,102204.97
2022-12-04T00:35:18.209Z,102207.34
2022-12-04T00:36:00.090Z,102206.34
2022-12-04T00:36:32.323Z,102203.72
2022-12-04T00:37:04.433Z,102203.59
2022-12-04T00:37:39.106Z,102204.41
2022-12-04T00:38:11.201Z,102206.94
2022-12-04T00:38:44.687Z,102207.75
2022-12-04T00:39:19.372Z,102214.03
2022-12-04T00:39:51.517Z,102207.91
2022-12-04T00:40:26.267Z,102206.09
2022-12-04T00:41:01.048Z,102213.19
2022-12-04T00:41:33.649Z,102205.25
2022-12-04T00:42:08.399Z,102205.38
2022-12-04T00:42:40.523Z,102208.88
2022-12-04T00:43:12.600Z,102212.34
2022-12-04T00:43:47.909Z,102208.59
2022-12-04T00:44:19.973Z,102211.38
2022-12-04T00:44:52.182Z,102207.75
2022-12-04T00:45:27.018Z,102207.63
2022-12-04T00:45:59.565Z,102208.75
2022-12-04T00:46:31.725Z,102212.22
2022-12-04T00:47:06.526Z,102213.31
2022-12-04T00:47:38.585Z,102210.13
2022-12-04T00:48:10.717Z,102218.16
2022-12-04T00:48:46.110Z,102209.28
2022-12-04T00:49:18.194Z,102207.75
2022-12-04T00:49:50.352Z,102218.03
2022-12-04T00:50:25.428Z,102209.16
2022-12-04T00:51:02.234Z,102206.34
2022-12-04T00:51:36.981Z,102203.72
2022-12-04T00:52:09.036Z,102205.38
2022-12-04T00:52:41.159Z,102209.72
2022-12-04T00:53:16.107Z,102212.22
2022-12-04T00:53:48.550Z,102208.75
2022-12-04T00:54:20.668Z,102213.03
2022-12-04T00:54:55.543Z,102207.91
2022-12-04T00:55:30.258Z,102204.28
2022-12-04T00:56:04.699Z,102220.00
2022-12-04T00:56:39.448Z,102207.50
2022-12-04T00:57:11.585Z,102209.28
2022-12-04T00:57:43.688Z,102211.94
2022-12-04T00:58:18.415Z,102206.66
2022-12-04T00:58:52.511Z,102214.59
2022-12-04T00:59:24.572Z,102203.03
2022-12-04T00:59:59.344Z,102208.19
2022-12-04T01:00:32.194Z,102217.78
2022-12-04T01:01:06.208Z,102211.53
2022-12-04T01:01:41.021Z,102210.69
2022-12-04T01:02:13.148Z,102207.22
2022-12-04T01:02:45.638Z,102209.16
2022-12-04T01:03:20.402Z,102207.34
2022-12-04T01:03:54.008Z,102205.69
2022-12-04T01:04:26.153Z,102209.97
2022-12-04T01:05:00.843Z,102209.97
2022-12-04T01:05:37.885Z,102211.66
2022-12-04T01:06:18.878Z,102219.75
2022-12-04T01:06:53.694Z,102210.13
2022-12-04T01:07:25.756Z,102216.25
2022-12-04T01:07:58.067Z,102205.69
2022-12-04T01:08:32.809Z,102215.53
2022-12-04T01:09:06.009Z,102211.38
2022-12-04T01:09:38.128Z,102213.31
2022-12-04T01:10:15.745Z,102216.91
2022-12-04T01:10:50.617Z,102214.69
2022-12-04T01:11:24.174Z,102208.84
2022-12-04T01:11:58.932Z,102210.66
2022-12-04T01:12:31.059Z,102217.75
2022-12-04T01:13:03.150Z,102213.28
2022-12-04T01:13:37.820Z,102208.00
2022-12-04T01:14:10.061Z,102209.00
2022-12-04T01:14:44.770Z,102213.44
2022-12-04T01:15:17.159Z,102213.44
2022-12-04T01:15:49.534Z,102211.50
2022-12-04T01:16:26.028Z,102217.34
2022-12-04T01:16:58.271Z,102210.13
2022-12-04T01:17:30.439Z,102205.50
2022-12-04T01:18:05.089Z,102211.38
2022-12-04T01:18:37.206Z,102219.16
2022-12-04T01:19:12.091Z,102214.72
2022-12-04T01:19:46.915Z,102220.97
2022-12-04T01:20:19.050Z,102219.16
2022-12-04T01:20:52.673Z,102211.22
2022-12-04T01:21:27.463Z,102219.88
2022-12-04T01:21:59.583Z,102215.53
2022-12-04T01:22:31.843Z,102210.13
2022-12-04T01:23:03.938Z,102218.06
2022-12-04T01:23:38.585Z,102215.25
2022-12-04T01:24:10.969Z,102209.84
2022-12-04T01:24:43.437Z,102214.16
2022-12-04T01:25:18.169Z,102210.56
2022-12-04T01:25:55.505Z,102211.53
2022-12-04T01:26:28.100Z,102209.16
2022-12-04T01:27:02.814Z,102211.09
2022-12-04T01:27:35.305Z,102212.06
2022-12-04T01:28:07.387Z,102215.00
2022-12-04T01:28:39.800Z,102213.44
2022-12-04T01:29:14.577Z,102208.31
2022-12-04T01:29:46.715Z,102214.00
2022-12-04T01:30:18.995Z,102215.94
2022-12-04T01:31:04.361Z,102211.78
2022-12-04T01:31:36.750Z,102213.69
2022-12-04T01:32:08.928Z,102207.44
2022-12-04T01:32:43.740Z,102215.25
2022-12-04T01:33:15.811Z,102214.53
2022-12-04T01:33:49.096Z,102208.28
2022-12-04T01:34:25.345Z,102211.78
2022-12-04T01:34:57.585Z,102212.06
2022-12-04T01:35:29.653Z,102211.91
2022-12-04T01:36:06.789Z,102218.72
2022-12-04T01:36:38.920Z,102210.09
2022-12-04T01:37:13.676Z,102217.19
2022-12-04T01:37:45.825Z,102209.41
2022-12-04T01:38:17.914Z,102216.34
2022-12-04T01:38:52.752Z,102217.19
2022-12-04T01:39:24.830Z,102224.97
2022-12-04T01:39:57.312Z,102217.75
2022-12-04T01:40:29.553Z,102215.81
2022-12-04T01:41:08.203Z,102219.97
2022-12-04T01:41:40.360Z,102219.13
2022-12-04T01:42:13.614Z,102214.69
2022-12-04T01:42:48.306Z,102217.34
2022-12-04T01:43:21.814Z,102218.44
2022-12-04T01:44:11.514Z,102218.44
2022-12-04T01:45:07.354Z,102215.25
2022-12-04T01:45:41.916Z,102224.69
2022-12-04T01:46:14.194Z,102224.94
2022-12-04T01:46:50.443Z,102224.13
2022-12-04T01:47:22.545Z,102219.66
2022-12-04T01:47:58.250Z,102215.22
2022-12-04T01:48:35.584Z,102224.00
2022-12-04T01:49:10.151Z,102219.66
2022-12-04T01:49:47.252Z,102212.88
2022-12-04T01:50:21.956Z,102214.06
2022-12-04T01:50:58.742Z,102214.22
2022-12-04T01:51:35.367Z,102219.63
2022-12-04T01:52:15.034Z,102222.00
2022-12-04T01:52:47.146Z,102215.06
2022-12-04T01:53:20.447Z,102216.47
2022-12-04T01:53:57.504Z,102219.66
2022-12-04T01:54:32.640Z,102219.38
2022-12-04T01:55:05.812Z,102221.06
2022-12-04T01:55:40.725Z,102212.19
2022-12-04T01:56:17.128Z,102214.53
2022-12-04T01:56:53.481Z,102211.06
2022-12-04T01:57:29.489Z,102218.31
2022-12-04T01:58:02.051Z,102212.19
2022-12-04T01:58:39.874Z,102214.81
2022-12-04T01:59:17.136Z,102217.47
2022-12-04T01:59:52.697Z,102218.56
2022-12-04T02:00:25.208Z,102215.91
2022-12-04T02:01:07.865Z,102214.25
2022-12-04T02:01:49.428Z,102218.94
2022-12-04T02:02:26.305Z,102215.63
2022-12-04T02:02:58.880Z,102214.78
2022-12-04T02:03:33.918Z,102222.59
2022-12-04T02:04:06.302Z,102223.56
2022-12-04T02:04:40.437Z,102223.56
2022-12-04T02:05:14.027Z,102217.44
2022-12-04T02:05:48.760Z,102217.16
2022-12-04T02:06:21.014Z,102220.50
2022-12-04T02:06:53.153Z,102214.38
2022-12-04T02:07:27.909Z,102211.63
2022-12-04T02:08:04.852Z,102213.25
2022-12-04T02:08:40.535Z,102222.75
2022-12-04T02:09:12.761Z,102212.47
2022-12-04T02:09:45.617Z,102219.38
2022-12-04T02:10:24.692Z,102217.59
2022-12-04T02:11:10.338Z,102206.47
2022-12-04T02:11:54.784Z,102206.59
2022-12-04T02:12:33.054Z,102207.72
2022-12-04T02:13:13.442Z,102205.19
2022-12-04T02:13:51.974Z,102212.44
2022-12-04T02:14:33.284Z,102206.31
2022-12-04T02:15:17.395Z,102212.28
2022-12-04T02:15:57.910Z,102210.75
2022-12-04T02:16:42.273Z,102211.28
2022-12-04T02:17:22.656Z,102208.91
2022-12-04T02:18:03.447Z,102210.59
2022-12-04T02:18:47.756Z,102213.09
2022-12-04T02:19:43.021Z,102212.41
2022-12-04T02:20:25.854Z,102207.22
2022-12-04T02:21:03.358Z,102210.44
2022-12-04T02:21:38.838Z,102217.56
2022-12-04T02:22:27.357Z,102217.56
2022-12-04T02:23:26.014Z,102219.75
2022-12-04T02:24:24.334Z,102214.59
2022-12-04T02:25:03.106Z,102216.53
2022-12-04T02:25:45.409Z,102216.53
2022-12-04T02:26:32.766Z,102215.28
2022-12-04T02:27:16.954Z,102218.16
2022-12-04T02:28:02.599Z,102221.78
2022-12-04T02:28:43.259Z,102227.06
2022-12-04T02:29:25.995Z,102221.66
2022-12-04T02:30:01.392Z,102219.00
2022-12-04T02:30:40.032Z,102227.75
2022-12-04T02:31:18.541Z,102230.41
2022-12-04T02:31:55.893Z,102232.91
2022-12-04T02:32:38.862Z,102222.34
2022-12-04T02:33:19.303Z,102231.25
2022-12-04T02:34:02.093Z,102232.91
2022-12-04T02:34:42.050Z,102232.91
2022-12-04T02:35:22.051Z,102233.16
2022-12-04T02:36:01.847Z,102229.84
2022-12-04T02:36:39.343Z,102232.47
2022-12-04T02:37:18.826Z,102233.31
2022-12-04T02:37:56.806Z,102227.88
2022-12-04T02:38:35.769Z,102232.91
2022-12-04T02:39:14.058Z,102236.41
2022-12-04T02:39:52.488Z,102227.63
2022-12-04T02:40:29.415Z,102235.16
2022-12-04T02:41:10.569Z,102234.19
2022-12-04T02:41:49.095Z,102225.44
2022-12-04T02:42:26.898Z,102224.44
2022-12-04T02:43:11.512Z,102232.66
2022-12-04T02:43:46.953Z,102230.41
2022-12-04T02:44:24.927Z,102229.72
2022-12-04T02:45:00.672Z,102231.63
2022-12-04T02:45:39.846Z,102228.16
2022-12-04T02:46:22.436Z,102229.28
2022-12-04T02:46:58.522Z,102230.94
2022-12-04T02:47:32.395Z,102228.44
2022-12-04T02:48:10.254Z,102227.59
2022-12-04T02:48:46.814Z,102227.47
2022-12-04T02:49:23.967Z,102228.31
2022-12-04T02:50:02.058Z,102227.31
2022-12-04T02:50:37.644Z,102226.34
2022-12-04T02:51:14.710Z,102227.88
2022-12-04T02:51:52.113Z,102232.09
2022-12-04T02:52:31.510Z,102218.75
2022-12-04T02:53:07.811Z,102227.63
2022-12-04T02:53:48.733Z,102227.63
2022-12-04T02:54:25.824Z,102229.44
2022-12-04T02:55:06.864Z,102231.25
2022-12-04T02:55:47.778Z,102224.28
2022-12-04T02:56:24.525Z,102226.81
2022-12-04T02:57:01.570Z,102218.88
2022-12-04T02:57:38.759Z,102224.16
2022-12-04T02:58:16.933Z,102228.59
2022-12-04T02:58:55.679Z,102225.13
2022-12-04T02:59:32.304Z,102230.41
2022-12-04T03:00:08.353Z,102234.00
2022-12-04T03:00:46.849Z,102234.00
2022-12-04T03:01:25.084Z,102234.00
2022-12-04T03:02:03.281Z,102229.72
2022-12-04T03:02:42.270Z,102235.00
2022-12-04T03:03:19.158Z,102234.28
2022-12-04T03:03:57.729Z,102232.59
2022-12-04T03:04:33.653Z,102230.13
2022-12-04T03:05:10.465Z,102239.84
2022-12-04T03:05:49.900Z,102229.41
2022-12-04T03:06:26.622Z,102228.56
2022-12-04T03:07:03.126Z,102221.47
2022-12-04T03:07:40.362Z,102231.91
2022-12-04T03:08:19.047Z,102235.50
2022-12-04T03:08:55.588Z,102231.19
2022-12-04T03:09:36.731Z,102231.47
2022-12-04T03:10:14.501Z,102231.75
2022-12-04T03:10:51.142Z,102228.25
2022-12-04T03:11:27.651Z,102236.03
2022-12-04T03:12:07.295Z,102226.31
2022-12-04T03:12:44.572Z,102233.00
2022-12-04T03:13:25.600Z,102233.00
2022-12-04T03:14:02.513Z,102239.38
2022-12-04T03:14:39.252Z,102230.50
2022-12-04T03:15:19.948Z,102226.88
2022-12-04T03:15:56.539Z,102235.41
2022-12-04T03:16:33.036Z,102230.81
2022-12-04T03:17:12.106Z,102226.25
2022-12-04T03:17:51.174Z,102230.81
2022-12-04T03:18:29.659Z,102230.69
2022-12-04T03:19:08.263Z,102231.63
2022-12-04T03:19:48.305Z,102224.22
2022-12-04T03:20:21.939Z,102223.00
2022-12-04T03:21:01.025Z,102227.44
2022-12-04T03:21:40.800Z,102226.72
2022-12-04T03:22:16.649Z,102231.16
2022-12-04T03:22:53.473Z,102229.50
2022-12-04T03:23:33.990Z,102237.41
2022-12-04T03:24:13.758Z,102233.94
2022-12-04T03:24:50.325Z,102229.63
2022-12-04T03:25:29.147Z,102240.06
2022-12-04T03:26:05.001Z,102239.34
2022-12-04T03:26:42.332Z,102239.22
2022-12-04T03:27:20.385Z,102239.22
2022-12-04T03:27:56.853Z,102226.03
2022-12-04T03:28:38.950Z,102230.47
2022-12-04T03:29:16.909Z,102228.78
2022-12-04T03:29:55.250Z,102232.25
2022-12-04T03:30:38.110Z,102228.66
2022-12-04T03:31:11.651Z,102236.69
2022-12-04T03:31:46.947Z,102228.66
2022-12-04T03:32:29.076Z,102232.94
2022-12-04T03:33:08.063Z,102233.66
2022-12-04T03:33:46.308Z,102226.47
2022-12-04T03:34:25.139Z,102234.22
2022-12-04T03:35:01.480Z,102236.03
2022-12-04T03:35:40.559Z,102230.75
2022-12-04T03:36:18.539Z,102233.38
2022-12-04T03:36:56.058Z,102235.91
2022-12-04T03:37:38.946Z,102234.13
2022-12-04T03:38:18.587Z,102237.44
2022-12-04T03:38:58.148Z,102239.13
2022-12-04T03:39:38.163Z,102245.25
2022-12-04T03:40:22.629Z,102242.47
2022-12-04T03:41:01.778Z,102247.75
2022-12-04T03:41:50.069Z,102245.97
2022-12-04T03:42:28.634Z,102246.91
2022-12-04T03:43:04.608Z,102236.34
2022-12-04T03:43:49.261Z,102241.50
2022-12-04T03:44:30.560Z,102247.75
2022-12-04T03:45:09.449Z,102243.72
2022-12-04T03:45:50.896Z,102241.19
2022-12-04T03:46:28.296Z,102250.06
2022-12-04T03:47:05.395Z,102240.63
2022-12-04T03:47:45.922Z,102234.50
2022-12-04T03:48:23.331Z,102241.72
2022-12-04T03:49:02.482Z,102248.78
2022-12-04T03:49:46.688Z,102239.22
2022-12-04T03:50:26.426Z,102245.47
2022-12-04T03:51:05.067Z,102241.13
2022-12-04T03:51:42.374Z,102244.50
2022-12-04T03:52:20.915Z,102239.22
2022-12-04T03:53:00.455Z,102244.63
2022-12-04T03:53:40.997Z,102246.41
2022-12-04T03:54:18.214Z,102254.34
2022-12-04T03:54:55.943Z,102250.00
2022-12-04T03:55:33.954Z,102244.75
2022-12-04T03:56:13.550Z,102255.28
2022-12-04T03:56:51.798Z,102251.97
2022-12-04T03:57:30.165Z,102252.81
2022-12-04T03:58:09.487Z,102255.44
2022-12-04T03:58:47.413Z,102260.84
2022-12-04T03:59:27.041Z,102251.25
2022-12-04T04:00:06.495Z,102257.63
2022-12-04T04:00:41.911Z,102259.44
2022-12-04T04:01:19.302Z,102257.50
2022-12-04T04:01:52.716Z,102257.25
2022-12-04T04:02:30.564Z,102253.50
2022-12-04T04:03:11.696Z,102249.06
2022-12-04T04:03:47.762Z,102255.06
2022-12-04T04:04:26.414Z,102256.47
2022-12-04T04:05:04.177Z,102252.59
2022-12-04T04:05:38.507Z,102251.63
2022-12-04T04:06:14.608Z,102256.75
2022-12-04T04:06:53.613Z,102254.97
2022-12-04T04:07:35.560Z,102248.72
2022-12-04T04:08:31.171Z,102249.56
2022-12-04T04:09:15.753Z,102256.91
2022-12-04T04:09:50.775Z,102255.34
2022-12-04T04:10:25.430Z,102262.31
2022-12-04T04:11:05.839Z,102260.41
2022-12-04T04:11:42.013Z,102260.06
2022-12-04T04:12:17.469Z,102257.44
2022-12-04T04:13:09.875Z,102251.44
2022-12-04T04:14:06.887Z,102254.59
2022-12-04T04:14:58.607Z,102253.06
2022-12-04T04:15:45.826Z,102257.75
2022-12-04T04:16:36.880Z,102258.88
2022-12-04T04:17:32.266Z,102260.56
2022-12-04T04:18:22.182Z,102262.34
2022-12-04T04:19:10.787Z,102256.22
2022-12-04T04:20:00.041Z,102251.06
2022-12-04T04:20:52.368Z,102257.31
2022-12-04T04:21:45.189Z,102257.47
2022-12-04T04:22:34.476Z,102257.69
2022-12-04T04:23:36.443Z,102251.84
2022-12-04T04:24:18.730Z,102252.22
2022-12-04T04:24:55.320Z,102256.16
2022-12-04T04:25:29.192Z,102255.91
2022-12-04T04:26:06.772Z,102254.66
2022-12-04T04:26:44.054Z,102252.88
2022-12-04T04:27:16.214Z,102251.34
2022-12-04T04:27:55.241Z,102259.09
2022-12-04T04:28:32.331Z,102254.81
2022-12-04T04:29:07.116Z,102247.97
2022-12-04T04:29:43.334Z,102255.91
2022-12-04T04:30:17.891Z,102256.84
2022-12-04T04:30:50.045Z,102251.56
2022-12-04T04:31:30.045Z,102254.22
2022-12-04T04:32:08.589Z,102251.84
2022-12-04T04:32:48.286Z,102255.22
2022-12-04T04:33:21.894Z,102256.84
2022-12-04T04:33:59.795Z,102261.75
2022-12-04T04:34:43.818Z,102259.81
2022-12-04T04:35:21.233Z,102257.19
2022-12-04T04:35:57.735Z,102255.00
2022-12-04T04:36:40.693Z,102254.84
2022-12-04T04:37:21.074Z,102256.69
2022-12-04T04:38:01.837Z,102260.00
2022-12-04T04:38:45.629Z,102257.50
2022-12-04T04:39:25.598Z,102267.25
2022-12-04T04:40:08.079Z,102260.28
2022-12-04T04:40:48.595Z,102257.75
2022-12-04T04:41:27.332Z,102256.91
2022-12-04T04:42:07.121Z,102265.69
2022-12-04T04:42:45.900Z,102256.81
2022-12-04T04:43:27.700Z,102255.97
2022-12-04T04:44:12.076Z,102251.53
2022-12-04T04:44:52.811Z,102251.63
2022-12-04T04:45:29.919Z,102252.47
2022-12-04T04:46:06.134Z,102254.16
2022-12-04T04:46:45.459Z,102256.69
2022-12-04T04:47:21.877Z,102254.03
2022-12-04T04:47:58.769Z,102256.53
2022-12-04T04:48:38.662Z,102248.59
2022-12-04T04:49:14.194Z,102253.06
2022-12-04T04:49:47.609Z,102249.56
2022-12-04T04:50:23.713Z,102252.81
2022-12-04T04:50:56.643Z,102250.84
2022-12-04T04:51:31.175Z,102254.34
2022-12-04T04:52:06.204Z,102256.97
2022-12-04T04:52:41.786Z,102249.91
2022-12-04T04:53:19.944Z,102256.59
2022-12-04T04:53:58.389Z,102254.78
2022-12-04T04:54:34.041Z,102255.63
2022-12-04T04:55:08.271Z,102253.69
2022-12-04T04:55:43.777Z,102252.72
2022-12-04T04:56:16.282Z,102250.22
2022-12-04T04:56:48.722Z,102256.47
2022-12-04T04:57:31.284Z,102259.34
2022-12-04T04:58:11.407Z,102260.84
2022-12-04T04:58:46.434Z,102256.69
2022-12-04T04:59:21.186Z,102258.47
2022-12-04T04:59:53.823Z,102261.97
2022-12-04T05:00:29.054Z,102256.91
2022-12-04T05:01:04.272Z,102260.66
2022-12-04T05:01:38.597Z,102257.47
2022-12-04T05:02:13.525Z,102259.66
2022-12-04T05:02:45.757Z,102254.88
2022-12-04T05:03:18.008Z,102258.75
2022-12-04T05:03:52.924Z,102259.00
2022-12-04T05:04:25.015Z,102265.34
2022-12-04T05:04:57.165Z,102273.44
2022-12-04T05:05:31.830Z,102263.00
2022-12-04T05:06:04.028Z,102264.78
2022-12-04T05:06:36.281Z,102266.47
2022-12-04T05:07:10.996Z,102262.88
2022-12-04T05:07:43.232Z,102265.50
2022-12-04T05:08:15.491Z,102268.84
2022-12-04T05:08:50.230Z,102263.56
2022-12-04T05:09:22.410Z,102268.84
2022-12-04T05:09:54.787Z,102267.03
2022-12-04T05:10:29.676Z,102267.88
2022-12-04T05:11:02.012Z,102268.72
2022-12-04T05:11:34.169Z,102266.09
2022-12-04T05:12:09.242Z,102276.75
2022-12-04T05:12:41.353Z,102276.06
2022-12-04T05:13:14.416Z,102272.59
2022-12-04T05:13:49.070Z,102276.91
2022-12-04T05:14:23.706Z,102272.31
2022-12-04T05:14:55.907Z,102270.41
2022-12-04T05:15:30.545Z,102271.22
2022-12-04T05:16:05.300Z,102266.78
2022-12-04T05:16:39.350Z,102269.41
2022-12-04T05:17:14.049Z,102275.69
2022-12-04T05:17:46.130Z,102267.75
2022-12-04T05:18:18.297Z,102270.41
2022-12-04T05:19:05.260Z,102264.41
2022-12-04T05:19:52.435Z,102265.50
2022-12-04T05:20:27.204Z,102270.31
2022-12-04T05:20:59.284Z,102267.69
2022-12-04T05:21:31.471Z,102263.94
2022-12-04T05:22:03.593Z,102264.78
2022-12-04T05:22:39.842Z,102259.50
2022-12-04T05:23:11.948Z,102268.16
2022-12-04T05:23:44.268Z,102273.44
2022-12-04T05:24:18.929Z,102266.19
2022-12-04T05:24:51.080Z,102262.59
2022-12-04T05:25:23.643Z,102264.28
2022-12-04T05:26:02.918Z,102264.13
2022-12-04T05:26:35.101Z,102268.44
2022-12-04T05:27:07.163Z,102262.22
2022-12-04T05:27:41.858Z,102269.41
2022-12-04T05:28:14.033Z,102266.78
2022-12-04T05:28:46.221Z,102263.19
2022-12-04T05:29:20.988Z,102269.19
2022-12-04T05:29:57.745Z,102265.69
2022-12-04T05:30:30.093Z,102267.75
2022-12-04T05:31:06.489Z,102266.09
2022-12-04T05:31:38.665Z,102267.75
2022-12-04T05:32:10.792Z,102271.22
2022-12-04T05:32:45.490Z,102262.22
2022-12-04T05:33:17.559Z,102261.25
2022-12-04T05:33:49.654Z,102261.00
2022-12-04T05:34:24.410Z,102272.97
2022-12-04T05:34:58.467Z,102273.53
2022-12-04T05:35:33.226Z,102273.53
2022-12-04T05:36:08.014Z,102274.38
2022-12-04T05:36:40.146Z,102268.25
2022-12-04T05:37:14.845Z,102272.69
2022-12-04T05:37:47.008Z,102271.03
2022-12-04T05:38:19.112Z,102276.16
2022-12-04T05:38:53.891Z,102272.69
2022-12-04T05:39:26.097Z,102273.81
2022-12-04T05:39:58.564Z,102270.31
2022-12-04T05:40:33.554Z,102274.91
2022-12-04T05:41:07.358Z,102273.22
2022-12-04T05:41:39.450Z,102272.38
2022-12-04T05:42:14.561Z,102269.75
2022-12-04T05:42:46.641Z,102267.50
2022-12-04T05:43:18.889Z,102270.97
2022-12-04T05:43:50.994Z,102266.66
2022-12-04T05:44:25.715Z,102267.63
2022-12-04T05:45:00.408Z,102271.34
2022-12-04T05:45:32.486Z,102274.00
2022-12-04T05:46:08.821Z,102264.28
2022-12-04T05:46:41.075Z,102264.28
2022-12-04T05:47:13.254Z,102262.88
2022-12-04T05:47:48.209Z,102268.38
2022-12-04T05:48:20.863Z,102271.28
2022-12-04T05:48:52.930Z,102266.13
2022-12-04T05:49:25.273Z,102275.44
2022-12-04T05:49:59.996Z,102272.81
2022-12-04T05:50:32.085Z,102270.06
2022-12-04T05:51:06.709Z,102273.44
2022-12-04T05:51:41.415Z,102272.59
2022-12-04T05:52:13.614Z,102278.81
2022-12-04T05:52:48.261Z,102276.19
2022-12-04T05:53:20.353Z,102279.78
2022-12-04T05:53:52.874Z,102281.44
2022-12-04T05:54:27.876Z,102273.66
2022-12-04T05:55:00.069Z,102276.28
2022-12-04T05:55:32.163Z,102281.56
2022-12-04T05:56:08.990Z,102290.31
2022-12-04T05:56:41.130Z,102287.00
2022-12-04T05:57:13.221Z,102284.34
2022-12-04T05:57:47.912Z,102282.69
2022-12-04T05:58:19.979Z,102280.16
2022-12-04T05:58:52.139Z,102287.22
2022-12-04T05:59:26.921Z,102283.63
2022-12-04T06:00:01.636Z,102289.88
2022-12-04T06:00:33.741Z,102283.91
2022-12-04T06:01:16.622Z,102279.59
2022-12-04T06:01:48.812Z,102283.16
2022-12-04T06:02:23.629Z,102286.66
2022-12-04T06:02:55.871Z,102284.00
2022-12-04T06:03:28.048Z,102284.28
2022-12-04T06:04:02.850Z,102287.97
2022-12-04T06:04:36.848Z,102294.09
2022-12-04T06:05:09.260Z,102287.97
2022-12-04T06:05:44.094Z,102283.56
2022-12-04T06:06:21.842Z,102287.97
2022-12-04T06:06:58.016Z,102286.34
2022-12-04T06:07:30.175Z,102287.97
2022-12-04T06:08:02.368Z,102290.63
2022-12-04T06:08:34.475Z,102296.75
2022-12-04T06:09:10.707Z,102289.66
2022-12-04T06:09:42.786Z,102288.72
2022-12-04T06:10:14.863Z,102284.13
2022-12-04T06:10:49.565Z,102281.50
2022-12-04T06:11:24.220Z,102281.63
2022-12-04T06:11:58.024Z,102284.41
2022-12-04T06:12:32.862Z,102284.41
2022-12-04T06:13:05.408Z,102283.44
2022-12-04T06:13:37.512Z,102286.66
2022-12-04T06:14:15.945Z,102284.97
2022-12-04T06:14:48.047Z,102284.50
2022-12-04T06:15:22.703Z,102277.22
2022-12-04T06:15:57.954Z,102284.13
2022-12-04T06:16:32.845Z,102288.44
2022-12-04T06:17:07.586Z,102285.13
2022-12-04T06:17:39.670Z,102288.59
2022-12-04T06:18:11.765Z,102292.75
2022-12-04T06:18:44.228Z,102295.97
2022-12-04T06:19:21.352Z,102292.50
2022-12-04T06:19:54.021Z,102289.88
2022-12-04T06:20:26.557Z,102291.81
2022-12-04T06:20:58.956Z,102294.44
2022-12-04T06:21:35.789Z,102295.41
2022-12-04T06:22:07.868Z,102294.81
2022-12-04T06:22:39.964Z,102294.09
2022-12-04T06:23:14.641Z,102296.16
2022-12-04T06:23:47.046Z,102286.56
2022-12-04T06:24:21.749Z,102290.31
2022-12-04T06:24:56.428Z,102294.00
2022-12-04T06:25:28.569Z,102297.63
2022-12-04T06:26:06.917Z,102295.00
2022-12-04T06:27:04.156Z,102297.03
2022-12-04T06:27:34.660Z,102298.84
2022-12-04T06:28:06.753Z,102300.50
2022-12-04T06:28:41.671Z,102304.00
2022-12-04T06:29:14.214Z,102305.78
2022-12-04T06:29:46.567Z,102301.50
2022-12-04T06:30:21.400Z,102296.22
2022-12-04T06:30:56.084Z,102298.84
2022-12-04T06:31:30.197Z,102302.44
2022-12-04T06:32:05.111Z,102309.25
2022-12-04T06:32:37.387Z,102311.06
2022-12-04T06:33:09.507Z,102305.78
2022-12-04T06:33:44.365Z,102298.72
2022-12-04T06:34:16.794Z,102309.16
2022-12-04T06:34:51.595Z,102311.78
2022-12-04T06:35:26.282Z,102305.66
2022-12-04T06:35:59.749Z,102300.50
2022-12-04T06:36:32.452Z,102309.16
2022-12-04T06:37:07.121Z,102305.66
2022-12-04T06:37:39.293Z,102308.41
2022-12-04T06:38:13.266Z,102307.47
2022-12-04T06:38:48.198Z,102309.16
2022-12-04T06:39:20.349Z,102310.94
2022-12-04T06:39:52.831Z,102311.66
2022-12-04T06:40:27.630Z,102317.75
2022-12-04T06:41:00.511Z,102312.47
2022-12-04T06:41:32.668Z,102322.91
2022-12-04T06:42:07.481Z,102315.84
2022-12-04T06:42:39.533Z,102314.88
2022-12-04T06:43:14.238Z,102320.00
2022-12-04T06:43:46.564Z,102312.94
2022-12-04T06:44:18.638Z,102316.41
2022-12-04T06:44:53.536Z,102318.94
2022-12-04T06:45:25.793Z,102311.88
2022-12-04T06:46:05.626Z,102317.84
2022-12-04T06:46:46.241Z,102308.25
2022-12-04T06:47:19.071Z,102313.66
2022-12-04T06:47:51.152Z,102319.06
2022-12-04T06:48:23.277Z,102310.69
2022-12-04T06:48:59.280Z,102316.53
2022-12-04T06:49:31.558Z,102312.34
2022-12-04T06:50:07.105Z,102309.84
2022-12-04T06:50:39.300Z,102315.25
2022-12-04T06:51:13.203Z,102319.69
2022-12-04T06:51:47.896Z,102322.59
2022-12-04T06:52:19.973Z,102318.28